Time;durP1;ratioP1;P1;durP2;ratioP2;P2;SDS_P1;SDS_P2;PMS_P1;PMS_P2;Temp;Humidity;BMP_temperature;BMP_pressure;BME280_temperature;BME280_humidity;BME280_pressure;Samples;Min_cycle;Max_cycle;Signal;HPM_P1;HPM_P2
2021/06/08 00:01:29;;;;;;;3.63;2.23;;;16.30;99.90;;;;;;5016308;28;20481;-56
2021/06/08 00:03:56;;;;;;;2.73;2.40;;;16.20;99.90;;;;;;5023290;28;20453;-56
2021/06/08 00:06:26;;;;;;;2.87;2.50;;;16.30;99.90;;;;;;5013085;28;20460;-56
2021/06/08 00:08:52;;;;;;;2.83;2.63;;;16.40;99.90;;;;;;5024861;28;20457;-56
2021/06/08 00:11:21;;;;;;;4.33;2.40;;;16.40;99.90;;;;;;5018311;28;20450;-57
2021/06/08 00:13:49;;;;;;;3.17;2.87;;;16.40;99.90;;;;;;5014425;28;20445;-57
2021/06/08 00:16:16;;;;;;;3.33;3.03;;;16.40;99.90;;;;;;5019274;28;20508;-56
2021/06/08 00:18:44;;;;;;;5.13;2.97;;;16.30;99.90;;;;;;5012806;28;20441;-56
2021/06/08 00:21:10;;;;;;;5.57;2.73;;;16.20;99.90;;;;;;5012679;28;20544;-56
2021/06/08 00:23:37;;;;;;;2.97;2.67;;;16.40;99.90;;;;;;5013106;28;20473;-57
2021/06/08 00:26:04;;;;;;;3.23;2.70;;;16.40;99.90;;;;;;5007506;28;20466;-57
2021/06/08 00:28:32;;;;;;;3.20;2.80;;;16.50;99.90;;;;;;5011951;28;20458;-56
2021/06/08 00:30:58;;;;;;;4.83;2.70;;;16.50;99.90;;;;;;5013646;28;20453;-57
2021/06/08 00:33:25;;;;;;;3.20;2.77;;;16.50;99.90;;;;;;5011890;28;20923;-56
2021/06/08 00:35:53;;;;;;;3.77;2.67;;;16.50;99.90;;;;;;5011924;28;20453;-57
2021/06/08 00:38:19;;;;;;;3.10;2.83;;;16.50;99.90;;;;;;5012385;28;20449;-57
2021/06/08 00:40:46;;;;;;;3.00;2.70;;;16.50;99.90;;;;;;5012711;28;20496;-56
2021/06/08 00:43:13;;;;;;;5.03;2.60;;;16.40;99.90;;;;;;5020464;28;20476;-56
2021/06/08 00:45:40;;;;;;;2.43;2.23;;;16.50;99.90;;;;;;5019293;28;20453;-56
2021/06/08 00:48:07;;;;;;;3.63;3.33;;;16.60;99.90;;;;;;5012496;28;20457;-56
2021/06/08 00:50:34;;;;;;;2.60;2.40;;;16.60;99.90;;;;;;5012351;28;20441;-57
2021/06/08 00:53:02;;;;;;;2.80;2.57;;;16.60;99.90;;;;;;5018353;28;21059;-56
2021/06/08 00:55:28;;;;;;;3.07;2.77;;;16.50;99.90;;;;;;5031869;28;20449;-56
2021/06/08 00:57:55;;;;;;;2.87;2.67;;;16.40;99.90;;;;;;5032356;28;20444;-56
2021/06/08 01:00:21;;;;;;;3.17;2.97;;;16.40;99.90;;;;;;5031904;28;20484;-56
2021/06/08 01:02:50;;;;;;;2.93;2.70;;;16.40;99.90;;;;;;5019344;28;20522;-57
2021/06/08 01:05:16;;;;;;;3.13;2.60;;;16.50;99.90;;;;;;5031722;28;20971;-56
2021/06/08 01:07:44;;;;;;;3.23;2.93;;;16.50;99.90;;;;;;5032005;28;20455;-56
2021/06/08 01:10:13;;;;;;;3.90;3.50;;;16.60;99.90;;;;;;5018747;28;20481;-56
2021/06/08 01:12:39;;;;;;;3.33;3.03;;;16.60;99.90;;;;;;5014863;28;20472;-57
2021/06/08 01:15:07;;;;;;;3.20;2.90;;;16.60;99.90;;;;;;5031738;28;20449;-57
2021/06/08 01:17:34;;;;;;;5.17;3.80;;;16.60;99.90;;;;;;5028907;28;20494;-56
2021/06/08 01:20:02;;;;;;;3.30;3.00;;;16.60;99.90;;;;;;5011773;28;20453;-57
2021/06/08 01:22:30;;;;;;;3.60;3.10;;;16.50;99.90;;;;;;5011440;28;20469;-57
2021/06/08 01:24:58;;;;;;;3.73;3.33;;;16.50;99.90;;;;;;5011904;28;20445;-57
2021/06/08 01:27:24;;;;;;;5.10;3.07;;;16.50;99.90;;;;;;5012125;28;20445;-57
2021/06/08 01:29:53;;;;;;;4.03;3.10;;;16.60;99.90;;;;;;5014231;28;20853;-56
2021/06/08 01:32:22;;;;;;;3.60;2.73;;;16.60;99.90;;;;;;5019718;28;20469;-56
2021/06/08 01:34:50;;;;;;;4.00;3.37;;;16.60;99.90;;;;;;5015710;28;20449;-58
2021/06/08 01:37:17;;;;;;;3.60;3.30;;;16.60;99.90;;;;;;5015710;28;20449;-57
2021/06/08 01:39:46;;;;;;;4.10;3.33;;;16.60;99.90;;;;;;5015718;28;20458;-57
2021/06/08 01:42:14;;;;;;;3.10;2.80;;;16.30;99.90;;;;;;5027733;28;20472;-57
2021/06/08 01:44:42;;;;;;;3.27;2.97;;;16.30;99.90;;;;;;5035485;28;20452;-56
2021/06/08 01:47:08;;;;;;;2.50;2.30;;;16.20;99.90;;;;;;5028721;28;20539;-56
2021/06/08 01:49:35;;;;;;;3.93;3.30;;;16.30;99.90;;;;;;5015451;28;21001;-57
2021/06/08 01:52:13;;;;;;;2.90;2.70;;;16.40;99.90;;;;;;5025284;28;20486;-56
2021/06/08 01:54:48;;;;;;;3.47;3.10;;;16.60;99.90;;;;;;5035291;28;20471;-57
2021/06/08 01:57:19;;;;;;;2.63;2.23;;;16.60;99.90;;;;;;5035234;28;20526;-56
2021/06/08 01:59:58;;;;;;;4.20;2.83;;;16.60;99.90;;;;;;5035038;28;20455;-56
2021/06/08 02:02:32;;;;;;;2.70;2.50;;;16.60;99.90;;;;;;5033323;28;20478;-56
2021/06/08 02:05:20;;;;;;;3.17;2.97;;;16.60;99.90;;;;;;5035009;28;20451;-57
2021/06/08 02:07:54;;;;;;;3.40;2.67;;;16.60;99.90;;;;;;5027474;28;20453;-57
2021/06/08 02:10:32;;;;;;;3.50;3.20;;;16.60;99.90;;;;;;5015881;28;20452;-57
2021/06/08 02:13:07;;;;;;;2.87;2.67;;;16.60;99.90;;;;;;5034647;28;20985;-57
2021/06/08 02:15:37;;;;;;;3.57;3.27;;;16.60;99.90;;;;;;5023550;28;20552;-56
2021/06/08 02:18:05;;;;;;;3.63;3.10;;;16.50;99.90;;;;;;5034801;28;20969;-56
2021/06/08 02:20:35;;;;;;;4.80;2.50;;;16.30;99.90;;;;;;5033338;28;20534;-56
2021/06/08 02:23:04;;;;;;;2.77;2.57;;;16.30;99.90;;;;;;5032121;28;20519;-56
2021/06/08 02:25:33;;;;;;;5.17;2.90;;;16.40;99.90;;;;;;5024619;28;20460;-57
2021/06/08 02:28:03;;;;;;;2.80;2.60;;;16.40;99.90;;;;;;5031413;28;20507;-57
2021/06/08 02:30:32;;;;;;;3.03;2.80;;;16.50;99.90;;;;;;5033846;28;20472;-57
2021/06/08 02:32:59;;;;;;;2.73;2.53;;;16.50;99.90;;;;;;5034320;28;20472;-56
2021/06/08 02:35:27;;;;;;;3.30;2.70;;;16.50;99.90;;;;;;5034199;28;20874;-56
2021/06/08 02:37:54;;;;;;;4.60;3.20;;;16.50;99.90;;;;;;5019708;28;20504;-56
2021/06/08 02:40:21;;;;;;;3.33;3.03;;;16.50;99.90;;;;;;5020650;28;20482;-56
2021/06/08 02:42:50;;;;;;;3.50;3.20;;;16.40;99.90;;;;;;5012924;28;20500;-57
2021/06/08 02:45:16;;;;;;;3.67;3.37;;;16.20;99.90;;;;;;5013372;28;20449;-57
2021/06/08 02:47:46;;;;;;;7.30;4.13;;;16.20;99.90;;;;;;5013490;28;20449;-56
2021/06/08 02:50:14;;;;;;;5.90;4.00;;;16.20;99.90;;;;;;5013561;28;20457;-56
2021/06/08 02:52:41;;;;;;;6.60;3.83;;;16.20;99.90;;;;;;5013872;28;20858;-57
2021/06/08 02:55:09;;;;;;;4.40;3.10;;;16.30;99.90;;;;;;5013468;28;20453;-57
2021/06/08 02:57:37;;;;;;;3.90;3.50;;;16.40;99.90;;;;;;5013056;28;20453;-57
2021/06/08 03:00:08;;;;;;;4.47;4.07;;;16.40;99.90;;;;;;5013131;28;20939;-57
2021/06/08 03:02:39;;;;;;;3.90;3.50;;;16.40;99.90;;;;;;5030318;28;20509;-57
2021/06/08 03:05:10;;;;;;;4.07;3.67;;;16.50;99.90;;;;;;5033066;28;20452;-58
2021/06/08 03:07:39;;;;;;;3.87;3.30;;;16.40;99.90;;;;;;5033198;28;20452;-56
2021/06/08 03:10:09;;;;;;;3.93;3.20;;;16.50;99.90;;;;;;5033593;28;20456;-56
2021/06/08 03:12:40;;;;;;;3.60;3.30;;;16.50;99.90;;;;;;5019915;28;20465;-56
2021/06/08 03:15:09;;;;;;;3.60;3.30;;;16.60;99.90;;;;;;5017873;28;20978;-57
2021/06/08 03:17:40;;;;;;;5.00;4.50;;;16.60;99.90;;;;;;5015852;28;20449;-56
2021/06/08 03:20:12;;;;;;;5.13;3.87;;;16.60;99.90;;;;;;5015718;28;20827;-57
2021/06/08 03:22:42;;;;;;;4.27;3.87;;;16.60;99.90;;;;;;5031296;28;20555;-56
2021/06/08 03:25:10;;;;;;;4.83;3.70;;;16.60;99.90;;;;;;5033936;28;20522;-57
2021/06/08 03:27:38;;;;;;;5.57;5.00;;;16.70;99.90;;;;;;5032527;28;20449;-57
2021/06/08 03:30:06;;;;;;;4.53;4.13;;;16.60;99.90;;;;;;5030820;28;20444;-57
2021/06/08 03:32:35;;;;;;;4.80;4.30;;;16.60;99.90;;;;;;5009426;28;20470;-57
2021/06/08 03:35:03;;;;;;;4.07;3.67;;;16.60;99.90;;;;;;5012409;28;20446;-57
2021/06/08 03:37:31;;;;;;;4.43;4.03;;;16.60;99.90;;;;;;5012373;28;20516;-57
2021/06/08 03:40:00;;;;;;;6.07;4.13;;;16.60;99.90;;;;;;5012810;28;20468;-57
2021/06/08 03:42:27;;;;;;;4.90;4.40;;;16.70;99.90;;;;;;4479081;28;15049276;-57
2021/06/08 03:44:54;;;;;;;8.13;4.47;;;16.70;99.90;;;;;;5016443;28;20209;-57
2021/06/08 03:47:21;;;;;;;4.90;3.43;;;16.70;99.90;;;;;;5027065;28;20450;-56
2021/06/08 03:49:49;;;;;;;4.87;4.37;;;16.70;99.90;;;;;;5015935;28;20457;-57
2021/06/08 03:52:16;;;;;;;5.00;4.50;;;16.70;99.90;;;;;;5018119;28;20469;-57
2021/06/08 03:54:42;;;;;;;4.53;4.13;;;16.60;99.90;;;;;;5013781;28;20484;-56
2021/06/08 03:57:10;;;;;;;4.43;4.00;;;16.40;99.90;;;;;;5012844;28;20448;-56
2021/06/08 03:59:37;;;;;;;4.77;3.87;;;16.40;99.90;;;;;;5013209;28;20837;-56
2021/06/08 04:02:05;;;;;;;4.60;3.50;;;16.40;99.90;;;;;;5023937;28;20480;-57
2021/06/08 04:04:32;;;;;;;3.70;3.40;;;16.50;99.90;;;;;;5019042;28;20516;-57
2021/06/08 04:07:00;;;;;;;3.53;3.23;;;16.40;99.90;;;;;;5012895;28;20454;-57
2021/06/08 04:09:27;;;;;;;3.53;3.23;;;16.50;99.90;;;;;;5012652;28;20666;-56
2021/06/08 04:11:53;;;;;;;5.13;4.00;;;16.60;99.90;;;;;;5021213;28;20472;-57
2021/06/08 04:14:21;;;;;;;5.07;4.57;;;16.60;99.90;;;;;;5032569;28;20448;-57
2021/06/08 04:16:48;;;;;;;6.40;4.90;;;16.60;99.90;;;;;;5021236;28;20574;-56
2021/06/08 04:19:15;;;;;;;5.60;5.10;;;16.50;99.90;;;;;;5015559;28;20448;-57
2021/06/08 04:21:42;;;;;;;6.20;5.60;;;16.40;99.90;;;;;;5025123;28;21018;-57
2021/06/08 04:24:11;;;;;;;7.17;5.97;;;16.20;99.90;;;;;;5014094;28;20875;-57
2021/06/08 04:26:38;;;;;;;10.97;6.40;;;16.10;99.90;;;;;;5015146;28;20512;-57
2021/06/08 04:29:07;;;;;;;7.20;5.80;;;16.00;99.90;;;;;;5014559;28;20450;-56
2021/06/08 04:31:35;;;;;;;7.80;5.87;;;16.10;99.90;;;;;;5030374;28;20481;-56
2021/06/08 04:34:02;;;;;;;6.73;5.90;;;16.20;99.90;;;;;;5032321;28;20452;-57
2021/06/08 04:36:31;;;;;;;7.67;6.13;;;16.30;99.90;;;;;;5026169;28;20947;-57
2021/06/08 04:38:57;;;;;;;6.37;5.70;;;16.40;99.90;;;;;;5012662;28;20504;-58
2021/06/08 04:41:26;;;;;;;12.60;9.60;;;16.50;99.90;;;;;;5012693;28;20486;-57
2021/06/08 04:43:53;;;;;;;11.57;10.40;;;16.40;99.90;;;;;;5035884;22;21030;-51
2021/06/08 04:46:23;;;;;;;8.50;7.70;;;16.40;99.90;;;;;;5012844;28;20540;-51
2021/06/08 04:48:49;;;;;;;9.03;6.80;;;16.40;99.90;;;;;;5012153;28;20464;-51
2021/06/08 04:51:16;;;;;;;8.90;8.00;;;16.60;99.90;;;;;;5027315;28;20453;-51
2021/06/08 04:53:43;;;;;;;9.90;7.87;;;16.60;99.90;;;;;;5022268;28;20464;-52
2021/06/08 04:56:10;;;;;;;8.13;7.17;;;16.60;99.90;;;;;;5026945;28;20802;-50
2021/06/08 04:58:38;;;;;;;7.70;6.90;;;16.60;99.90;;;;;;5024700;28;20955;-51
2021/06/08 05:01:13;;;;;;;7.90;6.70;;;16.70;99.90;;;;;;5012915;28;20576;-51
2021/06/08 05:03:41;;;;;;;8.50;5.93;;;16.80;99.90;;;;;;5011479;28;20611;-50
2021/06/08 05:06:12;;;;;;;6.27;5.67;;;16.80;99.90;;;;;;5011265;28;20450;-50
2021/06/08 05:08:43;;;;;;;5.27;4.77;;;16.90;99.90;;;;;;5013080;28;20524;-50
2021/06/08 05:11:14;;;;;;;6.00;4.90;;;16.90;99.90;;;;;;5008339;28;20462;-51
2021/06/08 05:13:47;;;;;;;6.43;4.93;;;16.80;99.90;;;;;;5005610;28;20532;-50
2021/06/08 05:16:15;;;;;;;6.60;5.83;;;16.80;99.90;;;;;;5009834;28;20830;-51
2021/06/08 05:18:43;;;;;;;7.10;5.37;;;16.90;99.90;;;;;;4992207;28;20450;-49
2021/06/08 05:21:11;;;;;;;7.60;5.33;;;17.00;99.90;;;;;;5004921;28;20485;-49
2021/06/08 05:23:39;;;;;;;6.57;5.30;;;17.10;99.90;;;;;;5007762;28;20515;-50
2021/06/08 05:26:06;;;;;;;6.37;5.63;;;17.20;99.90;;;;;;5011012;28;20454;-48
2021/06/08 05:28:35;;;;;;;7.20;5.90;;;17.30;99.90;;;;;;5011015;28;20454;-49
2021/06/08 05:31:04;;;;;;;7.77;6.73;;;17.40;99.90;;;;;;5010905;28;20503;-49
2021/06/08 05:33:32;;;;;;;10.93;6.77;;;17.40;99.90;;;;;;5010635;28;20473;-49
2021/06/08 05:35:59;;;;;;;7.30;6.37;;;17.30;99.90;;;;;;5010789;28;20464;-50
2021/06/08 05:38:30;;;;;;;6.60;5.60;;;17.30;99.90;;;;;;5011775;28;20461;-49
2021/06/08 05:40:56;;;;;;;6.40;5.60;;;17.30;99.90;;;;;;5020874;28;20568;-49
2021/06/08 05:43:23;;;;;;;5.40;4.70;;;17.50;99.90;;;;;;5011273;28;20480;-50
2021/06/08 05:45:50;;;;;;;6.60;5.47;;;17.50;99.90;;;;;;5011652;28;20516;-50
2021/06/08 05:48:22;;;;;;;6.43;5.40;;;17.80;99.90;;;;;;5011673;28;20465;-50
2021/06/08 05:50:48;;;;;;;9.90;5.70;;;17.60;99.90;;;;;;5011462;28;20959;-49
2021/06/08 05:53:17;;;;;;;7.23;5.73;;;17.50;99.90;;;;;;5011197;28;20461;-49
2021/06/08 05:55:49;;;;;;;7.60;5.50;;;17.70;99.90;;;;;;5010730;28;20453;-50
2021/06/08 05:58:16;;;;;;;7.80;6.30;;;17.70;99.90;;;;;;5011306;28;20536;-50
2021/06/08 06:00:43;;;;;;;8.40;6.27;;;17.60;99.90;;;;;;5011196;28;20481;-50
2021/06/08 06:03:09;;;;;;;7.03;5.77;;;17.50;99.90;;;;;;5011272;28;20907;-49
2021/06/08 06:05:38;;;;;;;8.13;5.70;;;17.50;99.90;;;;;;5018646;28;20456;-49
2021/06/08 06:08:06;;;;;;;7.10;6.40;;;17.60;99.90;;;;;;5024401;28;21074;-49
2021/06/08 06:10:33;;;;;;;6.57;5.20;;;17.60;99.90;;;;;;5005113;28;20507;-49
2021/06/08 06:13:01;;;;;;;8.40;6.60;;;17.50;99.90;;;;;;5009792;28;20509;-49
2021/06/08 06:15:31;;;;;;;7.90;7.10;;;17.60;99.90;;;;;;5006521;28;20461;-50
2021/06/08 06:17:58;;;;;;;7.10;6.40;;;17.70;99.90;;;;;;5011911;28;20203;-50
2021/06/08 06:20:25;;;;;;;7.97;6.67;;;17.70;99.90;;;;;;5012476;28;20465;-50
2021/06/08 06:22:53;;;;;;;7.60;6.23;;;17.70;99.90;;;;;;5014041;28;20486;-50
2021/06/08 06:25:20;;;;;;;8.10;6.93;;;17.70;99.90;;;;;;5014185;28;20453;-50
2021/06/08 06:27:46;;;;;;;9.57;6.33;;;17.80;99.90;;;;;;5014677;28;20461;-49
2021/06/08 06:30:15;;;;;;;8.57;6.47;;;17.90;99.90;;;;;;5013804;28;20511;-50
2021/06/08 06:32:44;;;;;;;7.03;5.83;;;17.90;99.90;;;;;;5014382;28;20461;-49
2021/06/08 06:35:12;;;;;;;8.63;6.63;;;17.90;99.90;;;;;;5014118;28;20544;-50
2021/06/08 06:37:40;;;;;;;6.93;6.00;;;18.00;99.90;;;;;;5014035;28;20537;-50
2021/06/08 06:40:13;;;;;;;7.83;6.60;;;18.00;99.90;;;;;;5013638;28;20462;-49
2021/06/08 06:42:43;;;;;;;8.67;6.70;;;18.10;99.90;;;;;;5022061;28;20490;-49
2021/06/08 06:45:14;;;;;;;9.90;8.60;;;18.10;99.90;;;;;;5022273;28;20535;-50
2021/06/08 06:47:42;;;;;;;8.13;7.10;;;18.10;99.90;;;;;;5013830;28;20461;-50
2021/06/08 06:50:11;;;;;;;7.10;6.40;;;18.30;99.90;;;;;;5013841;28;20449;-50
2021/06/08 06:52:39;;;;;;;7.50;6.50;;;18.50;99.90;;;;;;5013682;28;20470;-50
2021/06/08 06:55:09;;;;;;;8.77;6.70;;;18.80;99.90;;;;;;5010883;28;20515;-50
2021/06/08 06:57:36;;;;;;;7.13;5.60;;;18.90;99.90;;;;;;5013522;28;20464;-50
2021/06/08 07:00:05;;;;;;;7.27;6.43;;;18.80;99.90;;;;;;5013797;28;20450;-50
2021/06/08 07:02:32;;;;;;;7.67;6.10;;;18.80;99.90;;;;;;5012456;28;20923;-50
2021/06/08 07:04:59;;;;;;;5.97;5.20;;;18.70;99.90;;;;;;5013539;28;20453;-51
2021/06/08 07:07:26;;;;;;;5.27;4.70;;;18.80;99.90;;;;;;5013859;28;20441;-49
2021/06/08 07:09:54;;;;;;;4.90;4.40;;;18.90;99.90;;;;;;5013975;28;20453;-50
2021/06/08 07:12:22;;;;;;;4.87;4.47;;;19.10;99.90;;;;;;5013603;28;20524;-49
2021/06/08 07:14:49;;;;;;;5.07;4.40;;;19.30;99.90;;;;;;5013733;28;20457;-50
2021/06/08 07:17:20;;;;;;;4.63;4.23;;;19.00;99.90;;;;;;5013503;28;21034;-49
2021/06/08 07:19:47;;;;;;;5.17;4.67;;;19.10;99.90;;;;;;5013579;28;20461;-50
2021/06/08 07:22:15;;;;;;;5.07;4.57;;;19.40;99.90;;;;;;5012535;28;20489;-50
2021/06/08 07:24:42;;;;;;;5.50;4.67;;;19.70;99.90;;;;;;5013757;28;20461;-50
2021/06/08 07:27:13;;;;;;;7.23;4.97;;;19.40;99.90;;;;;;5021722;28;20449;-50
2021/06/08 07:29:41;;;;;;;5.20;4.70;;;19.40;99.90;;;;;;5011685;28;20473;-50
2021/06/08 07:32:16;;;;;;;5.17;4.67;;;19.60;99.90;;;;;;5010332;28;20462;-49
2021/06/08 07:34:49;;;;;;;5.23;4.73;;;19.70;99.90;;;;;;5016810;28;20540;-49
2021/06/08 07:37:20;;;;;;;7.80;4.70;;;20.00;99.90;;;;;;5012345;28;20538;-50
2021/06/08 07:39:49;;;;;;;5.93;5.30;;;20.20;99.90;;;;;;5020149;28;20453;-50
2021/06/08 07:42:19;;;;;;;5.60;4.77;;;20.30;99.90;;;;;;5012044;28;20492;-49
2021/06/08 07:44:56;;;;;;;4.63;4.07;;;20.20;99.90;;;;;;5013195;28;21025;-50
2021/06/08 07:47:25;;;;;;;6.80;5.50;;;20.50;99.90;;;;;;5012752;28;20528;-50
2021/06/08 07:49:54;;;;;;;6.77;5.10;;;20.70;99.90;;;;;;5013032;28;20484;-50
2021/06/08 07:52:23;;;;;;;6.77;5.30;;;20.90;99.90;;;;;;5012549;28;20462;-50
2021/06/08 07:54:51;;;;;;;7.50;4.77;;;21.20;99.90;;;;;;5014325;28;20872;-51
2021/06/08 07:57:19;;;;;;;5.67;4.90;;;21.70;99.90;;;;;;5024002;28;20511;-51
2021/06/08 07:59:47;;;;;;;5.60;4.27;;;22.10;99.90;;;;;;5019948;28;20446;-51
2021/06/08 08:02:18;;;;;;;5.27;4.63;;;22.90;99.90;;;;;;5013869;28;20485;-51
2021/06/08 08:04:50;;;;;;;5.10;4.53;;;23.20;99.90;;;;;;5013286;28;20453;-52
2021/06/08 08:07:18;;;;;;;5.47;4.93;;;22.80;99.90;;;;;;5012349;28;20457;-52
2021/06/08 08:09:45;;;;;;;6.37;5.43;;;22.30;99.90;;;;;;5011954;28;21012;-52
2021/06/08 08:12:13;;;;;;;6.30;4.83;;;21.30;99.90;;;;;;5012496;28;20469;-51
2021/06/08 08:14:42;;;;;;;5.00;4.60;;;21.60;99.90;;;;;;5012460;28;20449;-52
2021/06/08 08:17:11;;;;;;;6.23;4.60;;;22.00;99.90;;;;;;5015203;28;20453;-51
2021/06/08 08:19:38;;;;;;;4.43;4.03;;;22.30;99.90;;;;;;5009422;28;20519;-51
2021/06/08 08:22:05;;;;;;;6.83;4.43;;;23.60;99.90;;;;;;5011031;28;20493;-53
2021/06/08 08:24:32;;;;;;;6.00;4.33;;;25.10;99.90;;;;;;5011887;28;20473;-52
2021/06/08 08:27:00;;;;;;;5.40;4.67;;;26.10;99.90;;;;;;5012535;28;20504;-53
2021/06/08 08:29:27;;;;;;;4.23;3.83;;;26.60;99.90;;;;;;4998537;28;20987;-52
2021/06/08 08:31:54;;;;;;;4.77;4.27;;;27.20;99.90;;;;;;5007925;28;20477;-52
2021/06/08 08:34:22;;;;;;;4.17;3.73;;;26.60;99.90;;;;;;5007243;28;20469;-51
2021/06/08 08:36:49;;;;;;;4.53;4.13;;;26.40;99.90;;;;;;5011580;28;20456;-51
2021/06/08 08:39:16;;;;;;;4.73;4.23;;;26.40;99.90;;;;;;5011414;28;20856;-52
2021/06/08 08:41:44;;;;;;;6.00;5.00;;;26.20;99.90;;;;;;5009544;28;20485;-51
2021/06/08 08:44:12;;;;;;;4.60;4.20;;;25.20;99.90;;;;;;5007085;28;20539;-51
2021/06/08 08:46:39;;;;;;;6.20;5.10;;;24.60;99.90;;;;;;5010239;28;20963;-52
2021/06/08 08:49:06;;;;;;;7.90;6.70;;;23.50;99.90;;;;;;5005564;28;20461;-51
2021/06/08 08:51:38;;;;;;;9.80;5.67;;;21.70;99.90;;;;;;5009962;28;20466;-51
2021/06/08 08:54:06;;;;;;;6.80;6.20;;;21.10;99.90;;;;;;5010865;28;20572;-50
2021/06/08 08:56:33;;;;;;;7.33;6.60;;;20.60;99.90;;;;;;5012153;28;20940;-51
2021/06/08 08:59:03;;;;;;;7.23;5.73;;;20.20;99.90;;;;;;5008825;28;20458;-52
2021/06/08 09:01:33;;;;;;;9.50;6.63;;;20.40;99.90;;;;;;5009646;28;20488;-51
2021/06/08 09:04:01;;;;;;;6.47;5.80;;;20.90;99.90;;;;;;5006242;28;20485;-52
2021/06/08 09:06:27;;;;;;;7.67;5.97;;;21.20;99.90;;;;;;5003711;28;20836;-51
2021/06/08 09:08:55;;;;;;;7.40;6.40;;;21.10;99.90;;;;;;5009087;28;20890;-51
2021/06/08 09:11:22;;;;;;;7.17;6.03;;;21.20;99.90;;;;;;5010887;28;20985;-51
2021/06/08 09:13:48;;;;;;;8.37;6.20;;;21.70;99.90;;;;;;5007444;28;20488;-52
2021/06/08 09:16:15;;;;;;;7.33;5.67;;;21.30;99.90;;;;;;5010972;28;20524;-51
2021/06/08 09:18:42;;;;;;;6.27;5.30;;;22.00;99.90;;;;;;5009679;28;20465;-51
2021/06/08 09:21:15;;;;;;;8.60;5.20;;;22.20;99.90;;;;;;5008864;28;20504;-52
2021/06/08 09:23:42;;;;;;;9.10;4.87;;;22.20;99.90;;;;;;5009112;28;20517;-50
2021/06/08 09:26:10;;;;;;;5.73;5.10;;;22.50;99.90;;;;;;5008425;28;20464;-50
2021/06/08 09:28:38;;;;;;;5.67;5.07;;;23.30;99.90;;;;;;5008864;28;20469;-51
2021/06/08 09:31:09;;;;;;;7.30;5.47;;;23.80;99.90;;;;;;5009843;28;20516;-51
2021/06/08 09:33:37;;;;;;;6.37;5.77;;;23.30;99.90;;;;;;5003391;28;20493;-53
2021/06/08 09:36:06;;;;;;;5.67;5.17;;;23.10;99.90;;;;;;5001388;28;20515;-50
2021/06/08 09:38:42;;;;;;;8.23;5.23;;;22.80;99.90;;;;;;5001408;28;20808;-51
2021/06/08 09:41:23;;;;;;;5.50;5.00;;;23.00;99.90;;;;;;5005243;28;21062;-51
2021/06/08 09:43:56;;;;;;;5.00;4.57;;;23.50;99.90;;;;;;5008598;28;20493;-51
2021/06/08 09:46:27;;;;;;;4.93;4.47;;;23.90;99.90;;;;;;5010382;28;20469;-51
2021/06/08 09:48:55;;;;;;;4.97;4.07;;;24.30;99.90;;;;;;5011353;28;20973;-51
2021/06/08 09:51:45;;;;;;;5.10;4.57;;;24.20;99.90;;;;;;5012511;28;20465;-52
2021/06/08 09:54:27;;;;;;;4.53;4.10;;;23.70;99.90;;;;;;5006687;28;21000;-52
2021/06/08 09:57:12;;;;;;;5.47;4.00;;;23.00;99.90;;;;;;5014832;28;20465;-52
2021/06/08 09:59:42;;;;;;;7.40;4.77;;;23.60;99.90;;;;;;5003341;28;20487;-51
2021/06/08 10:02:32;;;;;;;5.50;5.00;;;24.10;99.90;;;;;;5006287;28;20842;-51
2021/06/08 10:05:24;;;;;;;6.60;6.00;;;24.10;99.90;;;;;;5005620;28;20508;-51
2021/06/08 10:07:51;;;;;;;4.77;4.37;;;23.10;99.90;;;;;;4997479;28;20485;-51
2021/06/08 10:10:25;;;;;;;5.97;5.37;;;23.40;99.90;;;;;;5010646;28;20465;-51
2021/06/08 10:13:01;;;;;;;5.20;4.70;;;23.80;99.90;;;;;;5005799;28;20485;-50
2021/06/08 10:15:29;;;;;;;5.03;4.63;;;22.90;99.90;;;;;;5004543;28;20522;-50
2021/06/08 10:18:00;;;;;;;9.50;5.43;;;21.90;99.90;;;;;;5006075;28;20468;-51
2021/06/08 10:20:30;;;;;;;5.30;4.80;;;21.40;99.90;;;;;;5007713;28;20470;-51
2021/06/08 10:22:57;;;;;;;7.40;4.30;;;21.90;99.90;;;;;;5007984;28;20496;-53
2021/06/08 10:25:23;;;;;;;4.47;4.07;;;22.10;99.90;;;;;;5010860;28;20465;-51
2021/06/08 10:27:50;;;;;;;4.50;4.10;;;22.70;99.90;;;;;;5012840;28;20818;-51
2021/06/08 10:30:20;;;;;;;4.60;4.20;;;23.40;99.90;;;;;;5010295;28;20465;-51
2021/06/08 10:32:47;;;;;;;5.27;4.77;;;23.90;99.90;;;;;;5009171;28;20508;-51
2021/06/08 10:35:14;;;;;;;4.20;3.80;;;23.90;99.90;;;;;;5005791;28;20500;-51
2021/06/08 10:37:40;;;;;;;5.00;4.03;;;23.90;99.90;;;;;;5008478;28;20971;-52
2021/06/08 10:40:07;;;;;;;3.57;3.27;;;23.20;99.90;;;;;;5006467;28;20547;-52
2021/06/08 10:42:34;;;;;;;4.73;2.70;;;23.40;99.90;;;;;;5007943;28;20500;-51
2021/06/08 10:45:04;;;;;;;2.73;2.53;;;24.10;99.90;;;;;;5005669;28;21125;-50
2021/06/08 10:47:35;;;;;;;3.43;3.13;;;24.90;99.90;;;;;;5039264;22;20492;-57
2021/06/08 10:50:03;;;;;;;3.00;2.80;;;25.10;99.90;;;;;;5016904;28;20461;-57
2021/06/08 10:52:45;;;;;;;3.40;2.73;;;24.10;99.90;;;;;;5025021;28;20468;-56
2021/06/08 10:55:13;;;;;;;3.27;2.90;;;24.00;99.90;;;;;;5020428;28;20614;-57
2021/06/08 10:57:44;;;;;;;4.00;3.60;;;24.10;99.90;;;;;;5025181;28;21009;-55
2021/06/08 11:00:34;;;;;;;3.50;3.10;;;23.90;99.90;;;;;;5022359;28;20977;-55
2021/06/08 11:03:04;;;;;;;2.40;2.20;;;23.30;99.90;;;;;;5020403;28;20547;-56
2021/06/08 11:05:49;;;;;;;2.30;2.20;;;23.60;99.90;;;;;;5021426;28;20472;-55
2021/06/08 11:08:16;;;;;;;2.33;2.23;;;23.80;99.90;;;;;;5022124;28;20487;-56
2021/06/08 11:10:57;;;;;;;4.20;2.30;;;23.80;99.90;;;;;;5028174;28;20475;-55
2021/06/08 11:13:43;;;;;;;1.97;1.87;;;23.80;99.90;;;;;;5026323;28;20612;-56
2021/06/08 11:16:31;;;;;;;2.03;1.93;;;23.30;99.90;;;;;;5024305;28;20485;-55
2021/06/08 11:18:59;;;;;;;2.10;2.00;;;22.20;99.90;;;;;;5023196;28;20919;-57
2021/06/08 11:21:28;;;;;;;1.90;1.80;;;22.00;99.90;;;;;;5022924;28;20511;-57
2021/06/08 11:23:55;;;;;;;1.90;1.80;;;21.90;99.90;;;;;;5022560;28;20465;-56
2021/06/08 11:26:48;;;;;;;1.93;1.83;;;21.90;99.90;;;;;;5023123;28;20472;-57
2021/06/08 11:29:43;;;;;;;2.00;1.90;;;21.90;99.90;;;;;;5018289;28;20476;-57
2021/06/08 11:32:09;;;;;;;2.30;2.10;;;22.10;99.90;;;;;;5024839;28;20597;-56
2021/06/08 11:35:08;;;;;;;2.00;1.90;;;22.40;99.90;;;;;;5018003;28;20468;-56
2021/06/08 11:38:02;;;;;;;1.93;1.70;;;22.70;99.90;;;;;;5017553;28;20492;-55
2021/06/08 11:41:10;;;;;;;2.20;2.10;;;22.20;99.90;;;;;;5023131;28;20468;-56
2021/06/08 11:43:54;;;;;;;2.83;2.63;;;22.40;99.90;;;;;;5025496;28;20479;-56
2021/06/08 11:46:29;;;;;;;2.27;2.07;;;23.00;99.90;;;;;;5022395;28;20454;-57
2021/06/08 11:49:07;;;;;;;2.13;2.03;;;23.00;99.90;;;;;;5028055;28;20460;-56
2021/06/08 11:51:46;;;;;;;2.50;2.40;;;23.00;99.90;;;;;;5019027;28;20461;-56
2021/06/08 11:54:15;;;;;;;2.47;2.37;;;22.50;99.90;;;;;;5025434;28;20869;-56
2021/06/08 11:57:01;;;;;;;2.07;1.97;;;22.70;99.90;;;;;;5024646;28;20864;-56
2021/06/08 11:59:30;;;;;;;2.00;1.90;;;22.80;99.90;;;;;;5023998;28;20473;-55
2021/06/08 12:01:59;;;;;;;3.00;2.80;;;23.10;99.90;;;;;;5022915;28;20485;-56
2021/06/08 12:04:28;;;;;;;2.67;2.57;;;23.80;99.90;;;;;;5019096;28;20815;-56
2021/06/08 12:07:09;;;;;;;3.13;2.93;;;24.30;99.90;;;;;;5019317;28;20477;-56
2021/06/08 12:09:43;;;;;;;2.67;2.50;;;23.90;99.90;;;;;;5017866;28;20464;-56
2021/06/08 12:12:12;;;;;;;3.63;3.33;;;23.90;99.90;;;;;;5025290;28;20543;-57
2021/06/08 12:14:47;;;;;;;3.40;3.10;;;23.90;99.90;;;;;;5021144;28;20514;-56
2021/06/08 12:17:14;;;;;;;3.73;3.43;;;23.80;99.90;;;;;;5020622;28;20476;-56
2021/06/08 12:19:41;;;;;;;3.10;2.90;;;23.80;99.90;;;;;;5023107;28;20473;-57
2021/06/08 12:22:24;;;;;;;6.60;3.93;;;23.90;99.90;;;;;;5023206;28;20637;-56
2021/06/08 12:24:55;;;;;;;5.10;4.60;;;23.60;99.90;;;;;;5022706;28;20526;-56
2021/06/08 12:27:33;;;;;;;4.60;4.20;;;23.50;99.90;;;;;;5023143;28;20485;-56
2021/06/08 12:30:00;;;;;;;4.43;4.03;;;23.40;99.90;;;;;;5023719;28;20452;-56
2021/06/08 12:32:27;;;;;;;4.50;4.13;;;22.80;99.90;;;;;;5021301;28;20492;-57
2021/06/08 12:34:54;;;;;;;5.60;5.10;;;22.40;99.90;;;;;;5023225;28;20472;-56
2021/06/08 12:37:27;;;;;;;5.43;4.50;;;22.50;99.90;;;;;;5023099;28;20492;-56
2021/06/08 12:39:55;;;;;;;6.13;5.50;;;22.40;99.90;;;;;;5021517;28;20460;-56
2021/06/08 12:42:23;;;;;;;7.17;6.40;;;22.70;99.90;;;;;;5022210;28;20869;-57
2021/06/08 12:44:50;;;;;;;7.00;6.40;;;22.30;99.90;;;;;;5025329;28;20985;-57
2021/06/08 12:47:18;;;;;;;7.87;6.53;;;22.00;99.90;;;;;;5021175;28;20476;-56
2021/06/08 12:49:45;;;;;;;7.93;6.57;;;22.10;99.90;;;;;;5018125;28;20469;-56
2021/06/08 12:52:16;;;;;;;7.53;6.70;;;22.20;99.90;;;;;;5021255;28;20468;-57
2021/06/08 12:54:45;;;;;;;6.77;6.13;;;22.30;99.90;;;;;;5017276;28;20500;-55
2021/06/08 12:57:21;;;;;;;6.87;6.17;;;22.40;99.90;;;;;;5022314;28;20522;-56
2021/06/08 12:59:51;;;;;;;6.97;6.27;;;22.80;99.90;;;;;;5021587;28;20527;-55